Time;durP1;ratioP1;P1;durP2;ratioP2;P2;SDS_P1;SDS_P2;PMS_P1;PMS_P2;Temp;Humidity;BMP_temperature;BMP_pressure;BME280_temperature;BME280_humidity;BME280_pressure;Samples;Min_cycle;Max_cycle;Signal;HPM_P1;HPM_P2
2021/08/21 00:00:01;;;;;;;0.00;0.00;;;;;;;;;;5086938;28;20201;-65
2021/08/21 00:02:27;;;;;;;0.10;0.10;;;;;;;;;;5086842;28;20485;-66
2021/08/21 00:04:54;;;;;;;0.00;0.00;;;;;;;;;;5086627;28;20500;-65
2021/08/21 00:07:20;;;;;;;0.10;0.10;;;;;;;;;;5076401;28;20211;-66
2021/08/21 00:09:47;;;;;;;0.00;0.00;;;;;;;;;;5080518;28;20207;-66
2021/08/21 00:12:14;;;;;;;0.10;0.10;;;;;;;;;;5066535;28;20205;-65
2021/08/21 00:14:41;;;;;;;0.10;0.10;;;;;;;;;;5081384;28;20345;-66
2021/08/21 00:17:07;;;;;;;0.10;0.10;;;;;;;;;;5086103;28;20216;-66
2021/08/21 00:19:33;;;;;;;0.00;0.00;;;;;;;;;;5086059;28;20227;-65
2021/08/21 00:21:59;;;;;;;0.10;0.10;;;;;;;;;;5067154;28;20236;-66
2021/08/21 00:24:25;;;;;;;0.00;0.00;;;;;;;;;;5066382;28;20206;-66
2021/08/21 00:26:52;;;;;;;0.03;0.03;;;;;;;;;;5066241;28;20197;-66
2021/08/21 00:29:20;;;;;;;0.00;0.00;;;;;;;;;;5085722;28;20314;-66
2021/08/21 00:31:46;;;;;;;0.00;0.00;;;;;;;;;;5086479;28;20301;-66
2021/08/21 00:34:12;;;;;;;0.10;0.10;;;;;;;;;;5082689;28;20270;-66
2021/08/21 00:36:38;;;;;;;0.10;0.10;;;;;;;;;;5065951;28;20550;-66
2021/08/21 00:39:05;;;;;;;0.00;0.00;;;;;;;;;;5082172;28;20207;-66
2021/08/21 00:41:32;;;;;;;0.00;0.00;;;;;;;;;;5086042;28;20473;-66
2021/08/21 00:43:58;;;;;;;0.00;0.00;;;;;;;;;;5071598;28;20206;-66
2021/08/21 00:46:26;;;;;;;0.00;0.00;;;;;;;;;;5068032;28;20252;-66
2021/08/21 00:48:52;;;;;;;0.00;0.00;;;;;;;;;;5065819;28;20209;-66
2021/08/21 00:51:18;;;;;;;0.03;0.03;;;;;;;;;;5065351;28;20228;-66
2021/08/21 00:53:45;;;;;;;0.05;0.05;;;;;;;;;;5076148;28;20317;-65
2021/08/21 00:56:11;;;;;;;0.10;0.10;;;;;;;;;;5083107;28;20263;-66
2021/08/21 00:58:37;;;;;;;0.00;0.00;;;;;;;;;;5074160;28;20228;-66
2021/08/21 01:01:04;;;;;;;0.00;0.00;;;;;;;;;;5085169;28;20205;-66
2021/08/21 01:03:31;;;;;;;0.00;0.00;;;;;;;;;;5085187;28;20204;-66
2021/08/21 01:05:58;;;;;;;0.10;0.10;;;;;;;;;;5085196;28;20212;-66
2021/08/21 01:08:24;;;;;;;0.10;0.10;;;;;;;;;;5080213;28;20489;-66
2021/08/21 01:10:51;;;;;;;0.00;0.00;;;;;;;;;;5065417;28;20523;-66
2021/08/21 01:13:17;;;;;;;1.55;1.55;;;;;;;;;;5082242;28;20201;-66
2021/08/21 01:15:44;;;;;;;0.10;0.10;;;;;;;;;;5080738;28;20201;-65
2021/08/21 01:18:10;;;;;;;0.00;0.00;;;;;;;;;;5065105;28;20280;-66
2021/08/21 01:20:38;;;;;;;0.00;0.00;;;;;;;;;;5064965;28;20496;-65
2021/08/21 01:23:04;;;;;;;0.00;0.00;;;;;;;;;;5079067;28;20428;-65
2021/08/21 01:25:30;;;;;;;0.10;0.10;;;;;;;;;;5084645;28;20205;-66
2021/08/21 01:27:58;;;;;;;0.00;0.00;;;;;;;;;;5085221;28;20246;-65
2021/08/21 01:30:24;;;;;;;0.00;0.00;;;;;;;;;;5070804;28;20210;-66
2021/08/21 01:32:51;;;;;;;0.03;0.03;;;;;;;;;;5084919;28;20200;-65
2021/08/21 01:35:17;;;;;;;0.05;0.05;;;;;;;;;;5085026;28;20203;-65
2021/08/21 01:37:43;;;;;;;0.05;0.05;;;;;;;;;;5070475;28;20542;-66
2021/08/21 01:40:10;;;;;;;0.00;0.00;;;;;;;;;;5084782;28;20268;-66
2021/08/21 01:42:38;;;;;;;0.00;0.00;;;;;;;;;;5070379;28;20214;-66
2021/08/21 01:45:09;;;;;;;0.05;0.05;;;;;;;;;;5084751;28;20207;-74
2021/08/21 01:47:35;;;;;;;0.10;0.10;;;;;;;;;;5084451;28;20211;-74
2021/08/21 01:50:04;;;;;;;0.00;0.00;;;;;;;;;;5084426;28;20199;-74
2021/08/21 01:52:30;;;;;;;0.00;0.00;;;;;;;;;;5070715;28;20229;-74
2021/08/21 01:54:57;;;;;;;0.10;0.10;;;;;;;;;;5084630;28;20250;-74
2021/08/21 01:57:23;;;;;;;0.00;0.00;;;;;;;;;;5072181;28;20268;-74
2021/08/21 01:59:51;;;;;;;0.08;0.08;;;;;;;;;;5082873;28;20253;-74
2021/08/21 02:02:19;;;;;;;1.50;1.48;;;;;;;;;;5073942;28;20204;-74
2021/08/21 02:04:45;;;;;;;0.00;0.00;;;;;;;;;;5062322;28;20267;-74
2021/08/21 02:07:11;;;;;;;0.00;0.00;;;;;;;;;;5059594;28;20225;-74
2021/08/21 02:09:38;;;;;;;0.08;0.08;;;;;;;;;;5049801;28;20205;-74
2021/08/21 02:12:05;;;;;;;0.03;0.03;;;;;;;;;;5058704;28;20251;-74
2021/08/21 02:14:31;;;;;;;0.00;0.00;;;;;;;;;;5060575;28;20504;-75
2021/08/21 02:16:59;;;;;;;0.00;0.00;;;;;;;;;;5064979;28;20542;-74
2021/08/21 02:19:27;;;;;;;0.10;0.10;;;;;;;;;;5051066;28;20227;-74
2021/08/21 02:21:53;;;;;;;0.10;0.10;;;;;;;;;;5044369;28;20215;-74
2021/08/21 02:24:24;;;;;;;0.00;0.00;;;;;;;;;;5056944;28;20212;-74
2021/08/21 02:26:50;;;;;;;0.08;0.08;;;;;;;;;;5050805;28;20261;-74
2021/08/21 02:29:16;;;;;;;0.00;0.00;;;;;;;;;;5064180;28;20362;-74
2021/08/21 02:31:42;;;;;;;0.00;0.00;;;;;;;;;;5050298;28;20239;-74
2021/08/21 02:34:09;;;;;;;0.00;0.00;;;;;;;;;;5054670;28;20203;-74
2021/08/21 02:36:36;;;;;;;0.00;0.00;;;;;;;;;;5057658;28;20206;-74
2021/08/21 02:39:03;;;;;;;0.00;0.00;;;;;;;;;;5044096;28;20230;-74
2021/08/21 02:41:29;;;;;;;0.08;0.08;;;;;;;;;;5044213;28;20204;-74
2021/08/21 02:43:55;;;;;;;0.00;0.00;;;;;;;;;;5044174;28;20203;-74
2021/08/21 02:46:22;;;;;;;0.00;0.00;;;;;;;;;;5044154;28;20493;-74
2021/08/21 02:48:49;;;;;;;0.00;0.00;;;;;;;;;;5061499;28;20220;-74
2021/08/21 02:51:15;;;;;;;0.00;0.00;;;;;;;;;;5053974;28;20237;-74
2021/08/21 02:53:42;;;;;;;0.10;0.10;;;;;;;;;;5043732;28;20206;-75
2021/08/21 02:56:09;;;;;;;0.00;0.00;;;;;;;;;;5055521;28;20206;-74
2021/08/21 02:58:35;;;;;;;0.00;0.00;;;;;;;;;;5050004;28;20543;-74
2021/08/21 03:01:01;;;;;;;0.00;0.00;;;;;;;;;;5050283;28;20207;-74
2021/08/21 03:03:27;;;;;;;0.00;0.00;;;;;;;;;;5051715;28;20506;-74
2021/08/21 03:05:53;;;;;;;0.00;0.00;;;;;;;;;;5057870;28;20210;-74
2021/08/21 03:08:19;;;;;;;0.10;0.10;;;;;;;;;;5043026;28;20204;-74
2021/08/21 03:10:47;;;;;;;0.10;0.10;;;;;;;;;;5046069;28;20205;-74
2021/08/21 03:13:13;;;;;;;0.10;0.10;;;;;;;;;;5062697;28;20210;-74
2021/08/21 03:15:39;;;;;;;0.00;0.00;;;;;;;;;;5050598;28;20481;-74
2021/08/21 03:18:06;;;;;;;0.00;0.00;;;;;;;;;;5063017;28;20332;-74
2021/08/21 03:20:32;;;;;;;0.00;0.00;;;;;;;;;;5063141;28;20208;-74
2021/08/21 03:22:58;;;;;;;0.00;0.00;;;;;;;;;;5045320;28;20207;-74
2021/08/21 03:25:24;;;;;;;0.00;0.00;;;;;;;;;;5053400;28;20206;-74
2021/08/21 03:27:52;;;;;;;0.10;0.10;;;;;;;;;;5063231;28;20273;-74
2021/08/21 03:30:18;;;;;;;0.00;0.00;;;;;;;;;;5063412;28;20220;-74
2021/08/21 03:32:44;;;;;;;0.00;0.00;;;;;;;;;;5049028;28;20257;-73
2021/08/21 03:35:11;;;;;;;0.00;0.00;;;;;;;;;;5056773;28;20579;-74
2021/08/21 03:37:40;;;;;;;0.05;0.05;;;;;;;;;;5055222;28;20316;-74
2021/08/21 03:40:07;;;;;;;0.08;0.08;;;;;;;;;;5049070;28;20204;-75
2021/08/21 03:42:33;;;;;;;0.03;0.03;;;;;;;;;;5063156;28;20269;-74
2021/08/21 03:45:00;;;;;;;0.10;0.10;;;;;;;;;;5062856;28;20372;-74
2021/08/21 03:47:27;;;;;;;0.10;0.10;;;;;;;;;;5063047;28;20250;-74
2021/08/21 03:49:53;;;;;;;0.10;0.10;;;;;;;;;;5047586;28;20293;-73
2021/08/21 03:52:19;;;;;;;0.10;0.10;;;;;;;;;;5050346;28;20223;-73
2021/08/21 03:54:45;;;;;;;0.10;0.10;;;;;;;;;;5049444;28;20262;-75
2021/08/21 03:57:13;;;;;;;0.10;0.10;;;;;;;;;;5042800;28;20277;-74
2021/08/21 03:59:39;;;;;;;0.00;0.00;;;;;;;;;;5054435;28;20247;-73
2021/08/21 04:02:06;;;;;;;0.00;0.00;;;;;;;;;;5044793;28;20249;-72
2021/08/21 04:04:33;;;;;;;0.05;0.05;;;;;;;;;;5042246;28;20250;-74
2021/08/21 04:06:59;;;;;;;0.00;0.00;;;;;;;;;;5056748;28;20568;-74
2021/08/21 04:09:25;;;;;;;0.00;0.00;;;;;;;;;;5042516;28;20226;-74
2021/08/21 04:11:51;;;;;;;0.00;0.00;;;;;;;;;;5042288;28;20300;-72
2021/08/21 04:14:17;;;;;;;0.00;0.00;;;;;;;;;;5056631;28;20258;-73
2021/08/21 04:16:44;;;;;;;0.08;0.08;;;;;;;;;;5042485;28;20201;-74
2021/08/21 04:19:11;;;;;;;0.10;0.10;;;;;;;;;;5057253;28;20229;-73
2021/08/21 04:21:39;;;;;;;0.00;0.00;;;;;;;;;;5046592;28;20208;-71
2021/08/21 04:24:06;;;;;;;0.00;0.00;;;;;;;;;;5059450;28;20527;-71
2021/08/21 04:26:32;;;;;;;0.03;0.03;;;;;;;;;;5052041;28;20215;-72
2021/08/21 04:28:58;;;;;;;0.10;0.10;;;;;;;;;;5066190;28;20202;-72
2021/08/21 04:31:24;;;;;;;0.10;0.10;;;;;;;;;;5048640;28;20210;-71
2021/08/21 04:33:50;;;;;;;0.00;0.00;;;;;;;;;;5055805;28;20345;-71
2021/08/21 04:36:18;;;;;;;0.00;0.00;;;;;;;;;;5064641;28;20284;-72
2021/08/21 04:38:44;;;;;;;0.00;0.00;;;;;;;;;;5045800;28;20277;-71
2021/08/21 04:41:10;;;;;;;0.00;0.00;;;;;;;;;;5059632;28;20367;-72
2021/08/21 04:43:37;;;;;;;0.05;0.05;;;;;;;;;;5060419;28;20209;-72
2021/08/21 04:46:03;;;;;;;0.10;0.10;;;;;;;;;;5046264;28;20484;-71
2021/08/21 04:48:29;;;;;;;0.10;0.10;;;;;;;;;;5049673;28;20243;-72
2021/08/21 04:50:55;;;;;;;0.00;0.00;;;;;;;;;;5055798;28;20219;-72
2021/08/21 04:53:23;;;;;;;0.00;0.00;;;;;;;;;;5048116;28;20206;-73
2021/08/21 04:55:49;;;;;;;0.00;0.00;;;;;;;;;;5057265;28;20429;-73
2021/08/21 04:58:15;;;;;;;0.10;0.10;;;;;;;;;;5046099;28;20548;-72
2021/08/21 05:00:41;;;;;;;0.10;0.10;;;;;;;;;;5059656;28;20222;-73
2021/08/21 05:03:08;;;;;;;0.00;0.00;;;;;;;;;;5046117;28;20478;-73
2021/08/21 05:05:34;;;;;;;0.00;0.00;;;;;;;;;;5064579;28;20265;-73
2021/08/21 05:08:00;;;;;;;0.10;0.10;;;;;;;;;;5055438;28;20197;-72
2021/08/21 05:10:28;;;;;;;0.03;0.03;;;;;;;;;;5048212;28;20559;-72
2021/08/21 05:12:54;;;;;;;0.00;0.00;;;;;;;;;;5057070;28;20210;-72
2021/08/21 05:15:21;;;;;;;0.00;0.00;;;;;;;;;;5056655;28;20365;-73
2021/08/21 05:17:49;;;;;;;0.10;0.10;;;;;;;;;;5048157;28;20230;-72
2021/08/21 05:20:17;;;;;;;0.00;0.00;;;;;;;;;;5054609;28;20251;-71
2021/08/21 05:23:02;;;;;;;0.00;0.00;;;;;;;;;;5065479;28;20225;-72
2021/08/21 05:25:30;;;;;;;0.05;0.05;;;;;;;;;;5051422;28;20520;-71
2021/08/21 05:27:56;;;;;;;0.10;0.10;;;;;;;;;;5059474;28;20210;-73
2021/08/21 05:30:27;;;;;;;0.05;0.05;;;;;;;;;;5045092;28;20207;-71
2021/08/21 05:32:53;;;;;;;0.10;0.10;;;;;;;;;;5044975;28;20497;-74
2021/08/21 05:35:20;;;;;;;0.10;0.10;;;;;;;;;;5045770;28;20272;-73
2021/08/21 05:37:46;;;;;;;0.05;0.05;;;;;;;;;;5045177;28;20526;-71
2021/08/21 05:40:13;;;;;;;0.00;0.00;;;;;;;;;;5044863;28;20219;-72
2021/08/21 05:42:40;;;;;;;0.00;0.00;;;;;;;;;;5057274;28;20209;-72
2021/08/21 05:45:07;;;;;;;0.10;0.10;;;;;;;;;;5047271;28;20257;-72
2021/08/21 05:47:33;;;;;;;0.10;0.10;;;;;;;;;;5055515;28;20214;-72
2021/08/21 05:50:01;;;;;;;0.00;0.00;;;;;;;;;;5050815;28;20316;-72
2021/08/21 05:52:27;;;;;;;0.00;0.00;;;;;;;;;;5064299;28;20204;-72
2021/08/21 05:54:53;;;;;;;0.10;0.10;;;;;;;;;;5050513;28;20205;-73
2021/08/21 05:57:19;;;;;;;0.10;0.10;;;;;;;;;;5058034;28;20248;-73
2021/08/21 05:59:47;;;;;;;0.00;0.00;;;;;;;;;;5057095;28;20232;-72
2021/08/21 06:02:13;;;;;;;0.10;0.10;;;;;;;;;;5045569;28;20261;-73
2021/08/21 06:04:40;;;;;;;0.10;0.10;;;;;;;;;;5044396;28;20205;-73
2021/08/21 06:07:06;;;;;;;0.10;0.10;;;;;;;;;;5044432;28;20310;-74
2021/08/21 06:09:32;;;;;;;0.10;0.10;;;;;;;;;;5044601;28;20379;-74
2021/08/21 06:11:58;;;;;;;0.00;0.00;;;;;;;;;;5045514;28;20213;-72
2021/08/21 06:14:25;;;;;;;0.00;0.00;;;;;;;;;;5050083;28;20477;-72
2021/08/21 06:16:52;;;;;;;0.00;0.00;;;;;;;;;;5044502;28;20219;-72
2021/08/21 06:19:18;;;;;;;0.00;0.00;;;;;;;;;;5045464;28;20317;-72
2021/08/21 06:21:45;;;;;;;0.00;0.00;;;;;;;;;;5056888;28;20247;-72
2021/08/21 06:24:11;;;;;;;0.00;0.00;;;;;;;;;;5044091;28;20208;-72
2021/08/21 06:26:37;;;;;;;0.10;0.10;;;;;;;;;;5049772;28;20425;-72
2021/08/21 06:29:04;;;;;;;0.00;0.00;;;;;;;;;;5052137;28;20206;-73
2021/08/21 06:31:30;;;;;;;0.00;0.00;;;;;;;;;;5061648;28;20230;-72
2021/08/21 06:33:58;;;;;;;0.00;0.00;;;;;;;;;;5064294;28;20241;-73
2021/08/21 06:36:24;;;;;;;0.10;0.10;;;;;;;;;;5048100;28;20486;-72
2021/08/21 06:38:50;;;;;;;0.10;0.10;;;;;;;;;;5043353;28;20228;-72
2021/08/21 06:41:16;;;;;;;0.00;0.00;;;;;;;;;;5057849;28;20227;-72
2021/08/21 06:43:42;;;;;;;0.00;0.00;;;;;;;;;;5049637;28;20320;-73
2021/08/21 06:46:09;;;;;;;0.10;0.10;;;;;;;;;;5051645;28;20208;-73
2021/08/21 06:48:35;;;;;;;0.00;0.00;;;;;;;;;;5043913;28;20321;-74
2021/08/21 06:51:03;;;;;;;0.00;0.00;;;;;;;;;;5054284;28;20222;-73
2021/08/21 06:53:30;;;;;;;0.00;0.00;;;;;;;;;;5046720;28;20266;-72
2021/08/21 06:55:56;;;;;;;0.10;0.10;;;;;;;;;;5052840;28;20412;-72
2021/08/21 06:58:22;;;;;;;0.10;0.10;;;;;;;;;;5048879;28;20246;-74
2021/08/21 07:00:49;;;;;;;0.00;0.00;;;;;;;;;;5052786;28;20230;-74
2021/08/21 07:03:15;;;;;;;0.00;0.00;;;;;;;;;;5051939;28;20212;-75
2021/08/21 07:05:42;;;;;;;0.20;0.20;;;;;;;;;;5064341;28;20201;-74
2021/08/21 07:08:12;;;;;;;0.00;0.00;;;;;;;;;;5052886;28;20268;-74
2021/08/21 07:10:39;;;;;;;0.00;0.00;;;;;;;;;;5049172;28;20264;-74
2021/08/21 07:13:05;;;;;;;0.10;0.10;;;;;;;;;;5059266;28;20208;-76
2021/08/21 07:15:32;;;;;;;0.00;0.00;;;;;;;;;;5063260;28;20390;-74
2021/08/21 07:17:58;;;;;;;0.00;0.00;;;;;;;;;;5049185;28;20227;-74
2021/08/21 07:20:25;;;;;;;0.10;0.10;;;;;;;;;;5052333;28;20220;-75
2021/08/21 07:22:51;;;;;;;0.00;0.00;;;;;;;;;;5045676;28;20216;-75
2021/08/21 07:25:19;;;;;;;0.00;0.00;;;;;;;;;;5054283;28;20275;-75
2021/08/21 07:27:45;;;;;;;0.00;0.00;;;;;;;;;;5044118;28;20209;-75
2021/08/21 07:30:12;;;;;;;0.08;0.08;;;;;;;;;;5056035;28;20201;-76
2021/08/21 07:32:38;;;;;;;0.00;0.00;;;;;;;;;;5043453;28;20307;-73
2021/08/21 07:35:05;;;;;;;0.00;0.00;;;;;;;;;;5057451;28;20208;-75
2021/08/21 07:37:31;;;;;;;0.00;0.00;;;;;;;;;;5055050;28;20207;-75
2021/08/21 07:39:57;;;;;;;0.00;0.00;;;;;;;;;;5059771;28;20231;-75
2021/08/21 07:42:25;;;;;;;0.00;0.00;;;;;;;;;;5043180;28;20421;-75
2021/08/21 07:44:51;;;;;;;0.00;0.00;;;;;;;;;;5043380;28;20209;-74
2021/08/21 07:47:17;;;;;;;0.00;0.00;;;;;;;;;;5051534;28;20200;-75
2021/08/21 07:49:45;;;;;;;0.00;0.00;;;;;;;;;;5063365;28;20207;-75
2021/08/21 07:52:11;;;;;;;0.00;0.00;;;;;;;;;;5043132;28;20216;-75
2021/08/21 07:54:37;;;;;;;0.10;0.10;;;;;;;;;;5056983;28;20269;-75
2021/08/21 07:57:03;;;;;;;0.10;0.10;;;;;;;;;;5067503;28;20204;-75
2021/08/21 07:59:31;;;;;;;0.00;0.00;;;;;;;;;;5067214;28;20235;-75
2021/08/21 08:01:57;;;;;;;0.20;0.20;;;;;;;;;;5053379;28;20428;-74
2021/08/21 08:04:23;;;;;;;0.08;0.08;;;;;;;;;;5067208;28;20242;-74
2021/08/21 08:06:50;;;;;;;0.03;0.03;;;;;;;;;;5052517;28;20209;-74
2021/08/21 08:09:16;;;;;;;0.70;0.70;;;;;;;;;;5047234;28;20239;-74
2021/08/21 08:11:43;;;;;;;0.10;0.10;;;;;;;;;;5046915;28;20541;-74
2021/08/21 08:14:09;;;;;;;0.05;0.05;;;;;;;;;;5050775;28;20449;-75
2021/08/21 08:16:36;;;;;;;0.00;0.00;;;;;;;;;;5054332;28;20214;-76
2021/08/21 08:19:03;;;;;;;0.00;0.00;;;;;;;;;;5053855;28;20554;-74
2021/08/21 08:21:29;;;;;;;0.00;0.00;;;;;;;;;;5052172;28;20310;-75
2021/08/21 08:23:56;;;;;;;0.28;0.28;;;;;;;;;;5055485;28;20208;-75
2021/08/21 08:26:22;;;;;;;0.10;0.10;;;;;;;;;;5060940;28;20239;-75
2021/08/21 08:28:48;;;;;;;0.00;0.00;;;;;;;;;;5046528;28;20212;-75
2021/08/21 08:31:16;;;;;;;0.00;0.00;;;;;;;;;;5046505;28;20231;-75
2021/08/21 08:33:43;;;;;;;0.00;0.00;;;;;;;;;;5054298;28;20412;-75
2021/08/21 08:36:10;;;;;;;0.00;0.00;;;;;;;;;;5052037;28;20367;-74
2021/08/21 08:38:36;;;;;;;0.00;0.00;;;;;;;;;;5052552;28;20204;-77
2021/08/21 08:41:02;;;;;;;0.00;0.00;;;;;;;;;;5053405;28;20270;-75
2021/08/21 08:43:29;;;;;;;0.00;0.00;;;;;;;;;;5050783;28;20204;-76
2021/08/21 08:45:56;;;;;;;0.00;0.00;;;;;;;;;;5066226;28;20203;-76
2021/08/21 08:48:22;;;;;;;0.00;0.00;;;;;;;;;;5066049;28;20247;-75
2021/08/21 08:50:49;;;;;;;0.00;0.00;;;;;;;;;;5065925;28;20212;-74
2021/08/21 08:53:16;;;;;;;0.10;0.10;;;;;;;;;;5051283;28;20209;-64
2021/08/21 08:55:43;;;;;;;0.00;0.00;;;;;;;;;;5065594;28;20245;-64
2021/08/21 08:58:10;;;;;;;0.00;0.00;;;;;;;;;;5052084;28;20209;-63
2021/08/21 09:00:36;;;;;;;0.00;0.00;;;;;;;;;;5059958;28;20221;-64
2021/08/21 09:03:03;;;;;;;0.10;0.10;;;;;;;;;;5056862;28;20242;-64
2021/08/21 09:05:35;;;;;;;0.00;0.00;;;;;;;;;;5060761;28;20414;-65
2021/08/21 09:08:03;;;;;;;0.00;0.00;;;;;;;;;;5045597;28;20241;-64
2021/08/21 09:10:30;;;;;;;0.10;0.10;;;;;;;;;;5058979;28;20213;-64
2021/08/21 09:13:06;;;;;;;0.10;0.10;;;;;;;;;;5045149;28;20205;-64
2021/08/21 09:15:35;;;;;;;0.00;0.00;;;;;;;;;;5058490;28;20200;-64
2021/08/21 09:18:05;;;;;;;0.10;0.10;;;;;;;;;;5060075;28;20372;-64
2021/08/21 09:20:31;;;;;;;0.00;0.00;;;;;;;;;;5044799;28;20263;-64
2021/08/21 09:23:18;;;;;;;0.00;0.00;;;;;;;;;;5058792;28;20425;-64
2021/08/21 09:25:44;;;;;;;0.00;0.00;;;;;;;;;;5057827;28;20210;-64
2021/08/21 09:28:14;;;;;;;0.10;0.10;;;;;;;;;;5046610;28;20262;-64
2021/08/21 09:30:41;;;;;;;0.00;0.00;;;;;;;;;;5056222;28;20371;-64
2021/08/21 09:33:07;;;;;;;0.10;0.10;;;;;;;;;;5061601;28;20478;-64
2021/08/21 09:35:34;;;;;;;0.00;0.00;;;;;;;;;;5057308;28;20429;-64
2021/08/21 09:38:02;;;;;;;0.00;0.00;;;;;;;;;;5065144;28;20249;-64
2021/08/21 09:40:31;;;;;;;0.00;0.00;;;;;;;;;;5065133;28;20224;-63
2021/08/21 09:42:58;;;;;;;0.10;0.10;;;;;;;;;;5064590;28;20275;-64
2021/08/21 09:45:25;;;;;;;0.00;0.00;;;;;;;;;;5044553;28;20380;-64
2021/08/21 09:47:57;;;;;;;0.00;0.00;;;;;;;;;;5044395;28;20276;-64
2021/08/21 09:50:23;;;;;;;0.00;0.00;;;;;;;;;;5044616;28;20209;-64
2021/08/21 09:52:50;;;;;;;0.00;0.00;;;;;;;;;;5056334;28;20230;-64
2021/08/21 09:55:20;;;;;;;0.00;0.00;;;;;;;;;;5060759;28;20542;-63
2021/08/21 09:57:59;;;;;;;0.03;0.03;;;;;;;;;;5044193;28;20239;-63
2021/08/21 10:00:25;;;;;;;0.00;0.00;;;;;;;;;;5044350;28;20216;-65
2021/08/21 10:02:52;;;;;;;0.00;0.00;;;;;;;;;;5044436;28;20247;-64
2021/08/21 10:05:18;;;;;;;0.00;0.00;;;;;;;;;;5044407;28;20216;-64
2021/08/21 10:07:48;;;;;;;0.00;0.00;;;;;;;;;;5044589;28;20266;-64
2021/08/21 10:10:17;;;;;;;0.00;0.00;;;;;;;;;;5058654;28;20207;-64
2021/08/21 10:12:45;;;;;;;0.00;0.00;;;;;;;;;;5056698;28;20200;-64
2021/08/21 10:15:14;;;;;;;0.00;0.00;;;;;;;;;;5044180;28;20205;-64
2021/08/21 10:17:40;;;;;;;0.00;0.00;;;;;;;;;;5059381;28;20224;-65
2021/08/21 10:20:07;;;;;;;0.00;0.00;;;;;;;;;;5064566;28;20228;-64
2021/08/21 10:22:34;;;;;;;0.00;0.00;;;;;;;;;;5049804;28;20205;-64
2021/08/21 10:25:03;;;;;;;0.00;0.00;;;;;;;;;;5043640;28;20220;-64
2021/08/21 10:27:31;;;;;;;0.10;0.10;;;;;;;;;;5056840;28;20208;-64
2021/08/21 10:30:01;;;;;;;0.10;0.10;;;;;;;;;;5045031;28;20197;-64
2021/08/21 10:32:33;;;;;;;0.00;0.00;;;;;;;;;;5043756;28;20209;-64
2021/08/21 10:34:59;;;;;;;0.00;0.00;;;;;;;;;;5048669;28;20507;-64
2021/08/21 10:37:36;;;;;;;0.10;0.10;;;;;;;;;;5053200;28;20550;-64
2021/08/21 10:40:17;;;;;;;0.00;0.00;;;;;;;;;;5043739;28;20263;-65
2021/08/21 10:42:51;;;;;;;0.00;0.00;;;;;;;;;;5043213;28;20205;-64
2021/08/21 10:45:42;;;;;;;0.00;0.00;;;;;;;;;;5043649;28;20268;-66
2021/08/21 10:48:11;;;;;;;0.00;0.00;;;;;;;;;;5057732;28;20222;-64
2021/08/21 10:50:41;;;;;;;0.00;0.00;;;;;;;;;;5043588;28;20247;-63
2021/08/21 10:53:07;;;;;;;0.00;0.00;;;;;;;;;;5043440;28;20246;-63
2021/08/21 10:55:43;;;;;;;0.00;0.00;;;;;;;;;;5042847;28;20215;-64
2021/08/21 10:58:12;;;;;;;0.65;0.63;;;;;;;;;;5056692;28;20388;-63
2021/08/21 11:00:42;;;;;;;0.00;0.00;;;;;;;;;;5043035;28;20236;-64
2021/08/21 11:03:10;;;;;;;0.00;0.00;;;;;;;;;;5055715;28;20326;-63
2021/08/21 11:06:04;;;;;;;0.10;0.10;;;;;;;;;;5045006;28;20266;-63
2021/08/21 11:08:32;;;;;;;0.00;0.00;;;;;;;;;;5043673;28;20314;-63
2021/08/21 11:11:18;;;;;;;0.10;0.10;;;;;;;;;;5063190;28;20234;-65
2021/08/21 11:13:48;;;;;;;0.00;0.00;;;;;;;;;;5063094;28;20208;-66
2021/08/21 11:16:15;;;;;;;0.00;0.00;;;;;;;;;;5063107;28;20208;-64
2021/08/21 11:18:45;;;;;;;0.00;0.00;;;;;;;;;;5052744;28;20232;-65
2021/08/21 11:21:30;;;;;;;0.00;0.00;;;;;;;;;;5056773;28;20250;-65
2021/08/21 11:23:57;;;;;;;0.05;0.05;;;;;;;;;;5042847;28;20212;-64
2021/08/21 11:26:24;;;;;;;0.00;0.00;;;;;;;;;;5042727;28;20251;-64
2021/08/21 11:29:05;;;;;;;0.03;0.03;;;;;;;;;;5052315;28;20310;-64
2021/08/21 11:31:50;;;;;;;0.00;0.00;;;;;;;;;;5048755;28;20214;-63
2021/08/21 11:34:17;;;;;;;0.00;0.00;;;;;;;;;;5050249;28;20566;-65
2021/08/21 11:36:43;;;;;;;0.00;0.00;;;;;;;;;;5042746;28;20200;-65
2021/08/21 11:39:11;;;;;;;0.00;0.00;;;;;;;;;;5043026;28;20251;-63
2021/08/21 11:41:37;;;;;;;0.00;0.00;;;;;;;;;;5042778;28;20410;-64
2021/08/21 11:44:05;;;;;;;0.00;0.00;;;;;;;;;;5052167;28;20241;-65
2021/08/21 11:46:31;;;;;;;0.00;0.00;;;;;;;;;;5047249;28;20419;-64
2021/08/21 11:49:06;;;;;;;0.00;0.00;;;;;;;;;;5042592;28;20247;-64
2021/08/21 11:51:37;;;;;;;0.00;0.00;;;;;;;;;;5042514;28;20215;-64
2021/08/21 11:54:04;;;;;;;0.00;0.00;;;;;;;;;;5042949;28;20197;-64
2021/08/21 11:56:32;;;;;;;0.00;0.00;;;;;;;;;;5042820;28;20208;-64
2021/08/21 11:59:06;;;;;;;0.00;0.00;;;;;;;;;;5056409;28;20578;-64
2021/08/21 12:01:35;;;;;;;0.05;0.05;;;;;;;;;;5042485;28;20222;-63
2021/08/21 12:06:47;;;;;;;0.00;0.00;;;;;;;;;;5048501;28;20263;-64
2021/08/21 12:09:14;;;;;;;0.00;0.00;;;;;;;;;;5056514;28;20278;-64
2021/08/21 12:11:42;;;;;;;0.00;0.00;;;;;;;;;;5043081;28;20201;-63
2021/08/21 12:14:09;;;;;;;0.00;0.00;;;;;;;;;;5060032;28;20389;-63
2021/08/21 12:16:36;;;;;;;0.00;0.00;;;;;;;;;;5049997;28;20421;-63
2021/08/21 12:19:03;;;;;;;0.00;0.00;;;;;;;;;;5049260;28;20233;-63
2021/08/21 12:21:30;;;;;;;0.00;0.00;;;;;;;;;;5042693;28;20523;-65
2021/08/21 12:23:56;;;;;;;0.00;0.00;;;;;;;;;;5042662;28;20213;-64
2021/08/21 12:26:33;;;;;;;0.00;0.00;;;;;;;;;;5056649;28;20201;-64
2021/08/21 12:29:01;;;;;;;0.00;0.00;;;;;;;;;;5042639;28;20271;-64
2021/08/21 12:31:33;;;;;;;0.00;0.00;;;;;;;;;;5046224;28;20384;-63
2021/08/21 12:33:59;;;;;;;0.03;0.03;;;;;;;;;;5052445;28;20197;-63
2021/08/21 12:36:26;;;;;;;0.00;0.00;;;;;;;;;;5044869;28;20205;-63
2021/08/21 12:39:01;;;;;;;0.00;0.00;;;;;;;;;;5054062;28;20216;-62
2021/08/21 12:41:29;;;;;;;0.00;0.00;;;;;;;;;;5058602;28;20235;-64
2021/08/21 12:44:04;;;;;;;2.38;2.28;;;;;;;;;;5046171;28;20468;-64
2021/08/21 12:46:30;;;;;;;0.00;0.00;;;;;;;;;;5059763;28;20208;-66
2021/08/21 12:49:04;;;;;;;0.20;0.20;;;;;;;;;;5046250;28;20196;-65
2021/08/21 12:51:38;;;;;;;0.00;0.00;;;;;;;;;;5045809;28;20236;-64
2021/08/21 12:54:05;;;;;;;0.00;0.00;;;;;;;;;;5050919;28;20208;-64
2021/08/21 12:56:31;;;;;;;0.00;0.00;;;;;;;;;;5052077;28;20216;-64
2021/08/21 12:59:08;;;;;;;0.00;0.00;;;;;;;;;;5045488;28;20409;-64
2021/08/21 13:01:35;;;;;;;0.05;0.05;;;;;;;;;;5059088;28;20262;-64
2021/08/21 13:04:05;;;;;;;0.00;0.00;;;;;;;;;;5065716;28;20204;-64
2021/08/21 13:06:31;;;;;;;0.00;0.00;;;;;;;;;;5065688;28;20200;-63
2021/08/21 13:08:58;;;;;;;0.00;0.00;;;;;;;;;;5051535;28;20258;-63
2021/08/21 13:11:24;;;;;;;0.10;0.10;;;;;;;;;;5055286;28;20373;-63
2021/08/21 13:13:50;;;;;;;0.00;0.00;;;;;;;;;;5045206;28;20255;-64
2021/08/21 13:16:18;;;;;;;0.00;0.00;;;;;;;;;;5045320;28;20326;-64
2021/08/21 13:18:44;;;;;;;0.00;0.00;;;;;;;;;;5045628;28;20228;-64
2021/08/21 13:21:10;;;;;;;0.00;0.00;;;;;;;;;;5048002;28;20232;-64
2021/08/21 13:23:37;;;;;;;0.00;0.00;;;;;;;;;;5064408;28;20250;-63
2021/08/21 13:26:04;;;;;;;0.00;0.00;;;;;;;;;;5062124;28;20204;-64
2021/08/21 13:28:30;;;;;;;0.00;0.00;;;;;;;;;;5049059;28;20219;-64
2021/08/21 13:30:57;;;;;;;0.00;0.00;;;;;;;;;;5064003;28;20364;-67
2021/08/21 13:33:24;;;;;;;0.00;0.00;;;;;;;;;;5055122;28;20240;-68
2021/08/21 13:35:50;;;;;;;0.03;0.03;;;;;;;;;;5056370;28;20398;-70
2021/08/21 13:38:17;;;;;;;1.73;1.70;;;;;;;;;;5056645;28;20227;-67
2021/08/21 13:40:43;;;;;;;0.00;0.00;;;;;;;;;;5065083;28;20586;-69
2021/08/21 13:43:09;;;;;;;0.00;0.00;;;;;;;;;;5052212;28;20484;-68
2021/08/21 13:45:36;;;;;;;0.00;0.00;;;;;;;;;;5058557;28;20208;-68
2021/08/21 13:48:03;;;;;;;0.00;0.00;;;;;;;;;;5064947;28;20204;-69
2021/08/21 13:50:31;;;;;;;0.00;0.00;;;;;;;;;;5060504;28;20220;-69
2021/08/21 13:52:57;;;;;;;0.00;0.00;;;;;;;;;;5065050;28;20207;-70
2021/08/21 13:55:23;;;;;;;0.00;0.00;;;;;;;;;;5056153;28;20204;-70
2021/08/21 13:57:52;;;;;;;0.00;0.00;;;;;;;;;;5058982;28;20212;-66
2021/08/21 14:00:18;;;;;;;0.05;0.05;;;;;;;;;;5052324;28;20511;-68
2021/08/21 14:02:45;;;;;;;0.00;0.00;;;;;;;;;;5055371;28;20279;-67
2021/08/21 14:05:12;;;;;;;0.00;0.00;;;;;;;;;;5055664;28;20204;-69
2021/08/21 14:07:40;;;;;;;0.10;0.10;;;;;;;;;;5053197;28;20200;-68
2021/08/21 14:10:07;;;;;;;0.00;0.00;;;;;;;;;;5049461;28;20212;-69
2021/08/21 14:12:33;;;;;;;0.00;0.00;;;;;;;;;;5055164;28;20206;-68
2021/08/21 14:15:02;;;;;;;0.00;0.00;;;;;;;;;;5056625;28;20223;-69
2021/08/21 14:17:28;;;;;;;0.00;0.00;;;;;;;;;;5044381;28;20204;-68
2021/08/21 14:19:54;;;;;;;0.00;0.00;;;;;;;;;;5050606;28;20200;-69
2021/08/21 14:22:21;;;;;;;0.00;0.00;;;;;;;;;;5051997;28;20270;-70
2021/08/21 14:24:48;;;;;;;0.00;0.00;;;;;;;;;;5044556;28;20201;-69
2021/08/21 14:27:14;;;;;;;0.00;0.00;;;;;;;;;;5044206;28;20212;-68
2021/08/21 14:29:41;;;;;;;0.00;0.00;;;;;;;;;;5046866;28;20207;-69
2021/08/21 14:32:07;;;;;;;0.00;0.00;;;;;;;;;;5055371;28;20492;-67
2021/08/21 14:34:34;;;;;;;0.00;0.00;;;;;;;;;;5055968;28;20204;-69
2021/08/21 14:37:00;;;;;;;0.00;0.00;;;;;;;;;;5043974;28;20201;-67
2021/08/21 14:39:26;;;;;;;0.00;0.00;;;;;;;;;;5044714;28;20205;-70
2021/08/21 14:41:54;;;;;;;0.00;0.00;;;;;;;;;;5058935;28;20225;-70
2021/08/21 14:44:20;;;;;;;0.00;0.00;;;;;;;;;;5052366;28;20262;-69
2021/08/21 14:46:46;;;;;;;0.00;0.00;;;;;;;;;;5059225;28;20200;-67